Forside
METAR-TAF:

METAR-TAF

Lufthavne :

Kinshasa, Congo

Breddekreds: 04-23S, længdekreds: 015-26E, højde: 309 m

Aktuelle vejr

Denne rapport blev lavet for 17 timer og 4 minutter siden, kl. 20:00 UTC
Vind 4 kt fra sydvest
Temperatur 24°C
Fugtighed 78%
Tryk 1017 hPa
Sigt: 6000 m
Nogle få skyer i en højde af 1800 ft

METAR: FZAA 212000Z 22004KT 6000 FEW018 24/20 Q1017 NOSIG

Tid: 14:04 (13:04 UTC)

Vejrudsigter

Denne rapport blev lavet for 2 timer og 4 minutter siden, kl. 11:00 UTC
Foreløbig gælder fra 22 på 12 UTC til 23 på 18 UTC
Vind 10 kt fra vest
Sigt: 6000 m
Midlertidig
fra 23 på 05 UTC til 23 på 09 UTC
Vind kt fra nord
Sigt: 4000 m
Brudte skyer i en højde af 1400 ft
dis
ændring
fra 23 på 10 UTC til 23 på 12 UTC
Spredte skyer i en højde af 2000 ft

TAF: FZAA 221100Z 2212/2318 27010KT 6000 NSC TEMPO 2305/2309 00000KT 4000 BR BKN014 BECMG 2310/2312 SCT020

Vejrobservationer og prognoser fra mere end 4000 lufthavne (METAR og TAF).

De gule og røde prikker repræsenterer de meteorologiske stationer.

Flyt musen over at se navnet på stationen.

Så klik over at se vejr observationer og prognoser.

At skifte det kort: Klik på de grønne knapper med et sort kors for at zoome ind; på den grønne knap med en bindestreg for at zoome ud; eller på de grønne pile for tilstødende kort.


METAR-TAF: